Time;durP1;ratioP1;P1;durP2;ratioP2;P2;SDS_P1;SDS_P2;PMS_P1;PMS_P2;Temp;Humidity;BMP_temperature;BMP_pressure;BME280_temperature;BME280_humidity;BME280_pressure;Samples;Min_cycle;Max_cycle;Signal;HPM_P1;HPM_P2
2022/12/06 00:02:10;;;;;;;3.13;0.93;;;5.40;99.90;;;;;;6222454;22;20019;-87
2022/12/06 00:04:38;;;;;;;3.22;1.02;;;5.20;99.90;;;;;;6198621;22;20031;-89
2022/12/06 00:07:04;;;;;;;4.57;1.40;;;4.50;99.90;;;;;;6249388;22;20019;-88
2022/12/06 00:09:38;;;;;;;4.47;1.30;;;5.60;99.90;;;;;;6223133;22;20020;-88
2022/12/06 00:12:24;;;;;;;3.97;1.30;;;5.20;99.90;;;;;;6224691;22;20058;-89
2022/12/06 00:15:10;;;;;;;;;;;;;;;;;;;;;
2022/12/06 00:17:36;;;;;;;;;;;5.20;99.90;;;;;;6225352;22;20098;-88
2022/12/06 00:20:02;;;;;;;3.00;1.15;;;5.20;99.90;;;;;;6223612;22;19977;-88
2022/12/06 00:22:33;;;;;;;2.70;1.23;;;4.80;99.90;;;;;;6223514;22;20015;-87
2022/12/06 00:25:01;;;;;;;5.95;1.30;;;5.40;99.90;;;;;;6223149;22;20016;-88
2022/12/06 00:27:49;;;;;;;4.85;1.23;;;5.20;99.90;;;;;;6222073;22;20411;-87
2022/12/06 00:30:22;;;;;;;4.20;1.38;;;5.30;99.90;;;;;;6247023;22;20041;-88
2022/12/06 00:33:09;;;;;;;2.88;1.40;;;5.30;99.90;;;;;;6196759;22;20015;-87
2022/12/06 00:35:39;;;;;;;3.35;1.50;;;5.30;99.90;;;;;;6245388;22;20019;-89
2022/12/06 00:38:08;;;;;;;2.25;1.20;;;5.10;99.90;;;;;;6221780;22;20020;-87
2022/12/06 00:40:39;;;;;;;2.95;1.30;;;5.20;99.90;;;;;;6197172;22;20092;-89
2022/12/06 00:43:08;;;;;;;3.22;1.58;;;5.40;99.90;;;;;;6245998;22;20012;-88
2022/12/06 00:45:43;;;;;;;3.67;1.40;;;;;;;;;;6220336;22;20094;-89
2022/12/06 00:48:32;;;;;;;7.28;1.05;;;5.20;99.90;;;;;;6247047;22;20073;-88
2022/12/06 00:50:58;;;;;;;5.07;1.20;;;5.50;99.90;;;;;;6244854;22;20024;-88
2022/12/06 00:53:29;;;;;;;3.70;1.20;;;5.10;99.90;;;;;;6220009;22;20393;-87
2022/12/06 00:55:58;;;;;;;3.85;1.17;;;5.30;99.90;;;;;;6245185;22;20012;-90
2022/12/06 00:58:28;;;;;;;3.65;1.40;;;5.20;99.90;;;;;;6221742;22;20095;-88
2022/12/06 01:01:21;;;;;;;4.25;1.38;;;5.10;99.90;;;;;;6196512;22;20027;-89
2022/12/06 01:03:52;;;;;;;3.55;1.40;;;5.30;99.90;;;;;;6221538;22;20098;-88
2022/12/06 01:06:26;;;;;;;5.20;1.13;;;5.10;99.90;;;;;;6222053;22;20343;-88
2022/12/06 01:08:53;;;;;;;3.45;1.20;;;5.30;99.90;;;;;;6221637;22;20177;-87
2022/12/06 01:11:24;;;;;;;3.65;1.40;;;4.10;99.90;;;;;;6221076;22;20020;-89
2022/12/06 01:13:53;;;;;;;5.68;1.67;;;5.20;99.90;;;;;;6220764;22;20026;-89
2022/12/06 01:16:23;;;;;;;7.03;1.40;;;7.00;99.90;;;;;;6220964;22;20103;-88
2022/12/06 01:18:59;;;;;;;4.18;1.60;;;5.70;99.90;;;;;;6221205;22;20042;-88
2022/12/06 01:21:31;;;;;;;7.05;2.05;;;5.50;99.90;;;;;;6222042;22;20039;-88
2022/12/06 01:24:17;;;;;;;6.00;1.75;;;6.70;99.90;;;;;;6196222;22;20744;-87
2022/12/06 01:26:42;;;;;;;3.50;1.40;;;5.10;99.90;;;;;;6245475;22;20028;-88
2022/12/06 01:29:21;;;;;;;;;;;;;;;;;;;;;
2022/12/06 01:31:52;;;;;;;5.57;1.58;;;6.70;99.90;;;;;;6222566;22;20022;-88
2022/12/06 01:34:20;;;;;;;4.85;1.23;;;5.00;99.90;;;;;;6221056;22;20016;-88
2022/12/06 01:36:50;;;;;;;4.95;1.38;;;5.40;99.90;;;;;;6219539;22;20011;-87
2022/12/06 01:39:24;;;;;;;3.97;1.27;;;;;;;;;;6197362;22;20019;-87
2022/12/06 01:41:54;;;;;;;5.05;1.30;;;5.00;99.90;;;;;;6244578;22;20020;-88
2022/12/06 01:45:10;;;;;;;2.40;1.58;;;5.30;99.90;;;;;;6220225;22;20020;-88
2022/12/06 01:47:52;;;;;;;4.50;1.70;;;5.20;99.90;;;;;;6195044;22;20400;-87
2022/12/06 01:50:34;;;;;;;3.63;1.30;;;5.10;99.90;;;;;;6221584;22;20019;-88
2022/12/06 01:53:09;;;;;;;6.25;1.40;;;3.50;99.90;;;;;;6220400;22;20042;-87
2022/12/06 01:55:41;;;;;;;7.57;1.80;;;5.00;99.90;;;;;;6220695;22;20027;-88
2022/12/06 01:58:16;;;;;;;5.32;1.50;;;3.50;99.90;;;;;;6220848;22;20027;-86
2022/12/06 02:00:42;;;;;;;3.17;1.73;;;;;;;;;;6221163;22;20098;-89
2022/12/06 02:03:20;;;;;;;4.80;1.83;;;5.00;99.90;;;;;;6221333;22;20022;-88
2022/12/06 02:05:50;;;;;;;3.95;1.60;;;3.70;99.90;;;;;;6220622;22;20020;-89
2022/12/06 02:08:24;;;;;;;3.20;1.00;;;5.00;99.90;;;;;;6218724;22;20023;-89
2022/12/06 02:10:51;;;;;;;3.38;0.85;;;5.10;99.90;;;;;;6218173;22;20035;-89
2022/12/06 02:13:22;;;;;;;3.70;1.25;;;5.00;99.90;;;;;;6218158;22;20504;-88
2022/12/06 02:16:17;;;;;;;2.38;1.00;;;6.10;99.90;;;;;;6218057;22;20121;-89
2022/12/06 02:19:15;;;;;;;2.83;0.77;;;4.90;99.90;;;;;;6155753;22;20073;-90
2022/12/06 02:21:47;;;;;;;2.47;0.93;;;4.90;99.90;;;;;;6242262;22;20012;-87
2022/12/06 02:24:25;;;;;;;2.30;0.80;;;4.90;99.90;;;;;;6217182;22;20026;-89
2022/12/06 02:27:19;;;;;;;2.95;0.88;;;5.00;99.90;;;;;;6216983;22;20055;-89
2022/12/06 02:30:11;;;;;;;;;;;;;;;;;;;;;
2022/12/06 02:32:42;;;;;;;0.93;0.65;;;5.00;99.90;;;;;;6243640;22;20020;-88
2022/12/06 02:35:26;;;;;;;3.10;0.98;;;5.20;99.90;;;;;;6219106;22;20019;-88
2022/12/06 02:38:13;;;;;;;4.25;1.35;;;4.90;99.90;;;;;;6243123;22;20015;-89
2022/12/06 02:41:16;;;;;;;1.80;0.90;;;5.00;99.90;;;;;;6219027;22;20427;-88
2022/12/06 02:44:04;;;;;;;3.75;1.20;;;5.90;99.90;;;;;;6211760;22;20085;-90
2022/12/06 02:46:34;;;;;;;4.82;1.05;;;4.90;99.90;;;;;;6219069;22;20022;-88
2022/12/06 02:49:13;;;;;;;;;;;;;;;;;;;;;
2022/12/06 02:51:40;;;;;;;5.25;1.00;;;6.00;99.90;;;;;;6246117;22;20339;-89
2022/12/06 02:54:09;;;;;;;2.78;1.00;;;5.00;99.90;;;;;;6245533;22;20008;-88
2022/12/06 02:56:39;;;;;;;2.88;1.10;;;6.70;99.90;;;;;;6220302;22;20015;-88
2022/12/06 02:59:05;;;;;;;2.72;1.10;;;6.00;99.90;;;;;;6248292;22;20401;-88
2022/12/06 03:01:40;;;;;;;2.65;1.20;;;6.60;99.90;;;;;;6222427;22;20106;-88
2022/12/06 03:04:30;;;;;;;2.58;1.20;;;5.40;99.90;;;;;;6222165;22;20103;-89
2022/12/06 03:07:10;;;;;;;3.17;1.10;;;4.40;99.90;;;;;;6247091;22;20023;-88
2022/12/06 03:10:14;;;;;;;3.53;1.17;;;5.10;99.90;;;;;;6222867;22;20052;-88
2022/12/06 03:13:17;;;;;;;3.97;1.00;;;5.30;99.90;;;;;;6222710;22;20027;-87
2022/12/06 03:16:06;;;;;;;2.83;0.93;;;5.00;99.90;;;;;;6222441;22;20023;-88
2022/12/06 03:19:02;;;;;;;4.68;1.30;;;5.00;99.90;;;;;;6222007;22;20102;-88
2022/12/06 03:21:42;;;;;;;2.83;0.93;;;3.30;99.90;;;;;;6222536;22;20023;-88
2022/12/06 03:24:13;;;;;;;8.27;2.05;;;4.80;99.90;;;;;;6222368;22;20011;-89
2022/12/06 03:26:49;;;;;;;4.63;1.10;;;4.80;99.90;;;;;;6222876;22;20016;-88
2022/12/06 03:29:21;;;;;;;6.55;1.17;;;5.50;99.90;;;;;;6197940;22;20020;-88
2022/12/06 03:31:51;;;;;;;4.13;1.35;;;4.80;99.90;;;;;;6220546;22;20039;-88
2022/12/06 03:34:31;;;;;;;6.00;1.20;;;6.40;99.90;;;;;;6222809;22;20105;-88
2022/12/06 03:36:58;;;;;;;4.38;1.20;;;5.10;99.90;;;;;;6222042;22;20031;-87
2022/12/06 03:39:42;;;;;;;3.95;1.30;;;6.80;99.90;;;;;;6221949;22;20033;-88
2022/12/06 03:42:08;;;;;;;3.65;1.20;;;4.80;99.90;;;;;;6222011;22;20051;-89
2022/12/06 03:44:37;;;;;;;2.38;1.10;;;4.80;99.90;;;;;;6221655;22;20020;-88
2022/12/06 03:47:13;;;;;;;5.30;1.20;;;5.50;99.90;;;;;;6220627;22;20020;-89
2022/12/06 03:49:44;;;;;;;3.53;1.10;;;6.50;99.90;;;;;;6222246;22;20022;-88
2022/12/06 03:52:22;;;;;;;5.38;1.20;;;4.70;99.90;;;;;;6221456;22;20078;-88
2022/12/06 03:54:50;;;;;;;4.72;1.50;;;5.60;99.90;;;;;;6222445;22;20015;-89
2022/12/06 03:57:16;;;;;;;4.35;1.45;;;4.70;99.90;;;;;;6246887;22;20016;-90
2022/12/06 03:59:45;;;;;;;3.67;1.40;;;3.80;99.90;;;;;;6221965;22;20020;-89
2022/12/06 04:02:18;;;;;;;3.45;1.50;;;6.60;99.90;;;;;;6221626;22;20023;-87
2022/12/06 04:04:46;;;;;;;4.95;2.22;;;;;;;;;;6247182;22;20012;-89
2022/12/06 04:07:15;;;;;;;3.08;1.60;;;4.70;99.90;;;;;;6220286;22;20020;-87
2022/12/06 04:09:55;;;;;;;5.38;1.90;;;4.70;99.90;;;;;;6196534;22;20015;-88
2022/12/06 04:15:14;;;;;;;6.70;2.15;;;3.30;99.90;;;;;;6246615;22;20443;-88
2022/12/06 04:23:02;;;;;;;7.03;2.17;;;5.20;99.90;;;;;;6246916;22;20520;-87
2022/12/06 04:23:18;;;;;;;5.20;1.92;;;4.20;99.90;;;;;;6246706;22;20023;-89
2022/12/06 04:25:57;;;;;;;;;;;;;;;;;;;;;
2022/12/06 04:39:47;;;;;;;3.83;1.55;;;5.60;99.90;;;;;;6204506;22;20023;-88
2022/12/06 04:45:03;;;;;;;3.25;1.50;;;4.00;99.90;;;;;;6246431;22;20439;-87
2022/12/06 04:47:28;;;;;;;3.80;1.50;;;4.20;99.90;;;;;;6221281;22;20055;-88
2022/12/06 04:49:57;;;;;;;3.10;1.40;;;4.00;99.90;;;;;;6221354;22;20082;-88
2022/12/06 04:52:23;;;;;;;3.85;1.40;;;4.20;99.90;;;;;;6221102;22;20023;-88
2022/12/06 04:54:49;;;;;;;3.15;1.23;;;5.70;99.90;;;;;;6221562;22;20019;-88
2022/12/06 04:57:19;;;;;;;4.72;1.30;;;3.80;99.90;;;;;;6221184;22;20454;-88
2022/12/06 04:59:50;;;;;;;4.45;1.40;;;3.80;99.90;;;;;;6221363;22;20058;-88
2022/12/06 05:02:18;;;;;;;4.10;1.50;;;5.50;99.90;;;;;;6246348;22;20443;-88
2022/12/06 05:04:53;;;;;;;3.85;1.23;;;4.90;99.90;;;;;;6246690;22;20726;-88
2022/12/06 05:07:19;;;;;;;2.55;1.45;;;4.60;99.90;;;;;;6220957;22;20012;-87
2022/12/06 05:09:45;;;;;;;5.18;1.33;;;;;;;;;;6221316;22;20461;-88
2022/12/06 05:12:11;;;;;;;6.00;1.88;;;3.50;99.90;;;;;;6220822;22;20019;-87
2022/12/06 05:14:39;;;;;;;3.33;1.30;;;4.90;99.90;;;;;;6196089;22;20660;-87
2022/12/06 05:17:12;;;;;;;5.00;1.33;;;3.40;99.90;;;;;;6195806;22;20022;-87
2022/12/06 05:19:38;;;;;;;2.17;1.17;;;5.20;99.90;;;;;;6196187;22;20019;-87
2022/12/06 05:22:06;;;;;;;3.50;1.63;;;4.70;99.90;;;;;;6170619;22;20027;-87
2022/12/06 05:24:32;;;;;;;3.67;1.20;;;4.70;99.90;;;;;;6196171;22;20030;-89
2022/12/06 05:26:58;;;;;;;5.18;1.40;;;3.30;99.90;;;;;;6220484;22;20016;-88
2022/12/06 05:29:24;;;;;;;3.55;1.52;;;3.20;99.90;;;;;;6221139;22;20016;-88
2022/12/06 05:31:49;;;;;;;3.45;1.35;;;3.20;99.90;;;;;;6220884;22;20103;-88
2022/12/06 05:34:15;;;;;;;3.40;1.23;;;5.00;99.90;;;;;;6220516;22;20020;-88
2022/12/06 05:36:44;;;;;;;6.32;1.65;;;3.10;99.90;;;;;;6220415;22;20016;-88
2022/12/06 05:39:10;;;;;;;4.35;1.40;;;3.40;99.90;;;;;;6219915;22;20027;-87
2022/12/06 05:41:38;;;;;;;3.10;1.40;;;2.80;99.90;;;;;;6220832;22;20020;-87
2022/12/06 05:44:08;;;;;;;4.93;1.42;;;4.50;99.90;;;;;;6245331;22;20053;-87
2022/12/06 05:46:38;;;;;;;5.13;1.42;;;3.30;99.90;;;;;;6219809;22;20019;-87
2022/12/06 05:49:07;;;;;;;4.45;1.30;;;3.30;99.90;;;;;;6219683;22;20016;-88
2022/12/06 05:51:36;;;;;;;3.50;1.40;;;3.40;99.90;;;;;;6219664;22;20019;-87
2022/12/06 05:54:06;;;;;;;3.30;1.52;;;3.00;99.90;;;;;;6220507;22;20022;-87
2022/12/06 05:56:38;;;;;;;3.47;1.38;;;2.70;99.90;;;;;;6197132;22;20343;-88
2022/12/06 05:59:07;;;;;;;5.03;1.50;;;4.60;99.90;;;;;;6197383;22;20508;-87
2022/12/06 06:01:36;;;;;;;4.05;1.42;;;4.00;99.90;;;;;;6220855;22;20082;-88
2022/12/06 06:04:02;;;;;;;3.45;1.90;;;3.20;99.90;;;;;;6220368;22;20062;-86
2022/12/06 06:06:28;;;;;;;2.85;1.20;;;2.80;99.90;;;;;;6218694;22;20020;-84
2022/12/06 06:08:53;;;;;;;3.60;1.35;;;3.90;99.90;;;;;;6218096;22;20011;-83
2022/12/06 06:11:29;;;;;;;2.97;1.38;;;3.00;99.90;;;;;;6218444;22;20034;-87
2022/12/06 06:14:11;;;;;;;3.40;1.38;;;2.80;99.90;;;;;;6219955;22;20447;-87
2022/12/06 06:16:37;;;;;;;4.00;1.30;;;2.60;99.90;;;;;;6196359;22;20020;-86
2022/12/06 06:19:06;;;;;;;4.53;1.35;;;2.90;99.90;;;;;;6219648;22;20027;-86
2022/12/06 06:21:34;;;;;;;3.10;1.50;;;2.70;99.90;;;;;;6220245;22;20055;-87
2022/12/06 06:24:00;;;;;;;3.03;1.50;;;;;;;;;;6219856;22;20662;-89
2022/12/06 06:26:26;;;;;;;2.92;1.50;;;2.70;99.90;;;;;;6219512;22;20035;-86
2022/12/06 06:28:52;;;;;;;4.75;1.73;;;4.60;99.90;;;;;;6220582;22;20451;-87
2022/12/06 06:31:21;;;;;;;2.70;1.42;;;3.10;99.90;;;;;;6220097;22;20107;-86
2022/12/06 06:33:52;;;;;;;3.55;1.98;;;3.30;99.90;;;;;;6221815;22;20026;-88
2022/12/06 06:36:18;;;;;;;5.15;1.70;;;4.50;99.90;;;;;;6247489;22;20344;-85
2022/12/06 06:38:44;;;;;;;4.43;1.80;;;3.50;99.90;;;;;;6222215;22;20030;-92
2022/12/06 06:41:11;;;;;;;2.40;1.20;;;3.20;99.90;;;;;;6223486;22;20023;-88
2022/12/06 06:43:37;;;;;;;4.50;1.80;;;2.80;99.90;;;;;;6245796;22;20024;-88
2022/12/06 06:46:05;;;;;;;5.32;1.92;;;5.00;99.90;;;;;;6218834;22;20016;-88
2022/12/06 06:48:36;;;;;;;2.83;1.48;;;2.80;99.90;;;;;;6219124;22;20081;-86
2022/12/06 06:51:10;;;;;;;3.13;2.22;;;2.80;99.90;;;;;;6219637;22;20026;-86
2022/12/06 06:53:36;;;;;;;6.07;1.98;;;3.60;99.90;;;;;;6222137;22;20102;-86
2022/12/06 06:56:03;;;;;;;6.20;2.10;;;4.20;99.90;;;;;;6220306;22;20394;-86
2022/12/06 06:58:29;;;;;;;5.57;2.05;;;2.90;99.90;;;;;;6248026;22;20034;-87
2022/12/06 07:00:57;;;;;;;6.15;2.42;;;3.50;99.90;;;;;;6220568;22;20028;-88
2022/12/06 07:03:26;;;;;;;3.40;2.10;;;4.40;99.90;;;;;;6244396;22;20453;-87
2022/12/06 07:06:05;;;;;;;4.50;2.55;;;1.90;99.90;;;;;;6217946;22;20027;-87
2022/12/06 07:08:31;;;;;;;6.63;2.15;;;1.90;99.90;;;;;;6217066;22;20023;-88
2022/12/06 07:10:57;;;;;;;3.22;1.98;;;2.80;99.90;;;;;;6242863;22;20158;-88
2022/12/06 07:13:24;;;;;;;2.78;1.65;;;3.20;99.90;;;;;;6242302;22;20269;-88
2022/12/06 07:15:51;;;;;;;3.15;1.65;;;3.70;99.90;;;;;;6219280;22;20051;-88
2022/12/06 07:18:19;;;;;;;6.70;2.20;;;4.00;99.90;;;;;;6244913;22;20077;-88
2022/12/06 07:20:49;;;;;;;4.15;2.10;;;5.00;99.90;;;;;;6220874;22;20023;-88
2022/12/06 07:23:15;;;;;;;6.32;2.22;;;4.50;99.90;;;;;;6245915;22;20388;-88
2022/12/06 07:25:41;;;;;;;6.07;2.15;;;3.20;99.90;;;;;;6220036;22;20051;-85
2022/12/06 07:28:07;;;;;;;6.68;2.40;;;3.20;99.90;;;;;;6219398;22;20025;-87
2022/12/06 07:30:32;;;;;;;6.50;2.40;;;3.30;99.90;;;;;;6220307;22;20019;-86
2022/12/06 07:32:58;;;;;;;3.83;2.13;;;3.30;99.90;;;;;;6220535;22;20070;-88
2022/12/06 07:35:24;;;;;;;4.22;2.22;;;3.60;99.90;;;;;;6244302;22;20016;-86
2022/12/06 07:37:53;;;;;;;4.88;2.20;;;3.30;99.90;;;;;;6220316;22;20024;-86
2022/12/06 07:40:19;;;;;;;5.50;2.30;;;5.20;99.90;;;;;;6245212;22;20020;-87
2022/12/06 07:45:29;;;;;;;6.18;2.35;;;3.60;99.90;;;;;;6244582;22;20058;-86
2022/12/06 07:47:55;;;;;;;6.45;2.88;;;4.00;99.90;;;;;;6221256;22;20023;-87
2022/12/06 07:50:23;;;;;;;4.90;3.00;;;3.30;99.90;;;;;;6221327;22;20015;-86
2022/12/06 07:52:50;;;;;;;6.93;2.95;;;5.10;99.90;;;;;;6194109;22;20026;-88
2022/12/06 07:55:16;;;;;;;10.00;3.60;;;3.50;99.90;;;;;;6220562;22;20026;-87
2022/12/06 07:57:45;;;;;;;8.15;3.35;;;3.70;99.90;;;;;;6247629;22;20016;-88
2022/12/06 08:00:18;;;;;;;7.05;3.08;;;5.10;99.90;;;;;;6222084;22;20312;-87
2022/12/06 08:02:44;;;;;;;6.60;3.47;;;3.60;99.90;;;;;;6247967;22;20335;-87
2022/12/06 08:05:10;;;;;;;7.50;2.80;;;4.30;99.90;;;;;;6245501;22;20058;-89
2022/12/06 08:07:36;;;;;;;7.20;2.75;;;5.00;99.90;;;;;;6222388;22;20073;-86
2022/12/06 08:10:04;;;;;;;4.75;2.30;;;3.70;99.90;;;;;;6221937;22;20378;-89
2022/12/06 08:12:31;;;;;;;6.57;2.97;;;3.90;99.90;;;;;;6221525;22;20454;-87
2022/12/06 08:14:57;;;;;;;10.00;3.55;;;3.80;99.90;;;;;;6221637;22;20019;-88
2022/12/06 08:17:22;;;;;;;8.13;3.15;;;3.10;99.90;;;;;;6246848;22;20016;-88
2022/12/06 08:19:50;;;;;;;8.55;2.67;;;3.90;99.90;;;;;;6197563;22;20098;-87
2022/12/06 08:22:18;;;;;;;8.25;2.97;;;3.90;99.90;;;;;;6172449;22;20027;-89
2022/12/06 08:24:47;;;;;;;6.55;2.40;;;5.90;99.90;;;;;;6222449;22;20023;-89
2022/12/06 08:27:13;;;;;;;6.50;2.67;;;5.60;99.90;;;;;;6221077;22;20573;-87
2022/12/06 08:29:39;;;;;;;4.45;2.53;;;5.80;99.90;;;;;;6222200;22;20030;-86
2022/12/06 08:32:07;;;;;;;4.40;2.58;;;4.40;99.90;;;;;;6218548;22;20530;-86
2022/12/06 08:34:38;;;;;;;5.75;2.60;;;5.20;99.90;;;;;;6217150;22;20053;-87
2022/12/06 08:37:04;;;;;;;3.97;2.35;;;4.00;99.90;;;;;;6218222;22;20023;-86
2022/12/06 08:39:30;;;;;;;3.78;2.20;;;4.10;99.90;;;;;;6217555;22;20215;-88
2022/12/06 08:42:13;;;;;;;3.88;2.55;;;4.00;99.90;;;;;;6218978;22;20466;-91
2022/12/06 08:44:42;;;;;;;5.55;2.72;;;4.20;99.90;;;;;;6244516;22;20034;-86
2022/12/06 08:47:10;;;;;;;7.88;3.00;;;4.30;99.90;;;;;;6218068;22;20016;-88
2022/12/06 08:49:35;;;;;;;7.35;2.60;;;6.50;99.90;;;;;;6216892;22;20023;-87
2022/12/06 08:52:02;;;;;;;5.53;2.35;;;6.10;99.90;;;;;;6217746;22;20023;-87
2022/12/06 08:54:28;;;;;;;5.05;2.60;;;5.10;99.90;;;;;;6240790;22;20359;-85
2022/12/06 08:56:54;;;;;;;4.75;2.20;;;;;;;;;;6217123;22;20024;-84
2022/12/06 08:59:20;;;;;;;4.70;2.58;;;4.90;99.90;;;;;;6218504;22;20046;-88
2022/12/06 09:01:46;;;;;;;4.07;2.05;;;5.80;99.90;;;;;;6217276;22;20372;-90
2022/12/06 09:04:12;;;;;;;5.07;2.10;;;6.80;99.90;;;;;;6193838;22;20478;-90
2022/12/06 09:06:58;;;;;;;5.13;2.25;;;4.90;99.90;;;;;;6244607;22;20020;-89
2022/12/06 09:09:34;;;;;;;8.02;3.17;;;4.90;99.90;;;;;;6245205;22;20020;-89
2022/12/06 09:12:10;;;;;;;;;;;;;;;;;;;;;
2022/12/06 09:14:36;;;;;;;5.10;2.20;;;5.00;99.90;;;;;;6243784;22;20016;-88
2022/12/06 09:17:05;;;;;;;4.13;1.75;;;5.10;99.90;;;;;;6217896;22;20466;-89
2022/12/06 09:19:34;;;;;;;8.27;1.75;;;5.10;99.90;;;;;;6194937;22;20095;-88
2022/12/06 09:22:01;;;;;;;3.10;1.60;;;5.20;99.90;;;;;;6218318;22;20444;-88
2022/12/06 09:24:27;;;;;;;5.57;1.95;;;4.90;99.90;;;;;;6243311;22;20015;-88
2022/12/06 09:26:56;;;;;;;4.30;1.60;;;5.10;99.90;;;;;;6244099;22;20403;-89
2022/12/06 09:29:38;;;;;;;3.38;1.30;;;5.10;99.90;;;;;;6245919;22;20080;-87
2022/12/06 09:32:07;;;;;;;3.45;1.70;;;7.30;99.90;;;;;;6219920;22;20530;-89
2022/12/06 09:34:45;;;;;;;5.32;1.85;;;5.70;99.90;;;;;;6218648;22;20034;-88
2022/12/06 09:37:22;;;;;;;5.75;1.33;;;6.20;99.90;;;;;;6218965;22;20027;-90
2022/12/06 09:40:07;;;;;;;4.20;1.20;;;6.40;99.90;;;;;;6195175;22;20030;-89
2022/12/06 09:43:09;;;;;;;;;;;;;;;;;;;;;
2022/12/06 09:46:04;;;;;;;2.22;1.20;;;6.40;99.90;;;;;;6242563;22;20482;-89
2022/12/06 09:49:15;;;;;;;2.97;1.13;;;6.40;99.90;;;;;;6215436;22;20447;-88
2022/12/06 09:51:53;;;;;;;5.40;1.25;;;6.20;99.90;;;;;;6134249;22;20429;-85
2022/12/06 09:54:20;;;;;;;1.77;0.82;;;;;;;;;;6216329;22;20024;-88
2022/12/06 09:57:18;;;;;;;4.78;1.20;;;7.30;99.90;;;;;;6215374;22;20014;-87
2022/12/06 10:00:11;;;;;;;3.22;1.30;;;6.20;99.90;;;;;;6177042;22;20059;-89
2022/12/06 10:03:02;;;;;;;3.80;1.00;;;6.10;99.90;;;;;;6219277;22;20024;-90
2022/12/06 10:05:43;;;;;;;2.65;0.93;;;6.10;99.90;;;;;;6215114;22;20347;-85
2022/12/06 10:08:56;;;;;;;3.58;0.88;;;6.70;99.90;;;;;;6218501;22;20027;-85
2022/12/06 10:11:55;;;;;;;3.60;0.93;;;6.00;99.90;;;;;;6215940;22;20114;-86
2022/12/06 10:14:47;;;;;;;6.80;1.33;;;6.00;99.90;;;;;;6216020;22;20058;-85
2022/12/06 10:17:28;;;;;;;4.00;0.82;;;6.00;99.90;;;;;;6215620;22;20297;-84
2022/12/06 10:20:19;;;;;;;3.70;1.25;;;6.10;99.90;;;;;;6218371;22;20041;-84
2022/12/06 10:23:27;;;;;;;5.03;1.10;;;6.10;99.90;;;;;;6242199;22;20026;-86
2022/12/06 10:26:02;;;;;;;3.42;0.90;;;6.10;99.90;;;;;;6228316;22;20027;-87
2022/12/06 10:28:34;;;;;;;4.00;1.30;;;6.10;99.90;;;;;;6243500;22;20015;-88
2022/12/06 10:31:33;;;;;;;3.55;0.90;;;6.60;99.90;;;;;;6244488;22;20030;-87
2022/12/06 10:34:22;;;;;;;3.35;1.10;;;6.00;99.90;;;;;;6221627;22;20026;-86
2022/12/06 10:36:54;;;;;;;4.75;0.90;;;6.00;99.90;;;;;;6219290;22;20114;-86
2022/12/06 10:39:28;;;;;;;2.22;0.90;;;6.00;99.90;;;;;;6219371;22;20524;-87
2022/12/06 10:42:08;;;;;;;2.95;0.70;;;6.00;99.90;;;;;;6224533;22;20026;-86
2022/12/06 10:44:47;;;;;;;4.95;1.10;;;6.00;99.90;;;;;;6221156;22;20024;-86
2022/12/06 10:47:31;;;;;;;6.28;1.10;;;7.20;99.90;;;;;;6217291;22;20721;-87
2022/12/06 10:50:17;;;;;;;3.78;1.02;;;6.00;99.90;;;;;;6216876;22;20126;-85
2022/12/06 10:52:48;;;;;;;2.50;0.90;;;6.10;99.90;;;;;;6218392;22;20409;-83
2022/12/06 10:55:19;;;;;;;1.42;0.73;;;6.10;99.90;;;;;;6195034;22;20012;-86
2022/12/06 10:58:11;;;;;;;;;;;;;;;;;;;;;
2022/12/06 11:01:02;;;;;;;3.75;1.50;;;6.20;99.90;;;;;;6244047;22;20759;-87
2022/12/06 11:03:41;;;;;;;4.53;1.02;;;6.40;99.90;;;;;;6217025;22;20016;-86
2022/12/06 11:06:15;;;;;;;4.47;1.10;;;6.40;99.90;;;;;;6216729;22;20024;-86
2022/12/06 11:09:11;;;;;;;6.60;1.30;;;6.30;99.90;;;;;;6216302;22;20020;-85
2022/12/06 11:11:41;;;;;;;2.00;0.93;;;6.40;99.90;;;;;;6238285;22;20016;-87
2022/12/06 11:14:20;;;;;;;2.28;0.80;;;6.00;99.90;;;;;;6214597;22;20373;-87
2022/12/06 11:17:11;;;;;;;2.60;0.88;;;7.00;99.90;;;;;;6215065;22;20473;-86
2022/12/06 11:19:53;;;;;;;8.77;1.10;;;5.00;99.90;;;;;;6214726;22;20026;-85
2022/12/06 11:22:40;;;;;;;3.53;1.20;;;6.40;99.90;;;;;;6220951;22;20023;-88
2022/12/06 11:25:45;;;;;;;1.70;0.77;;;6.30;99.90;;;;;;6242936;22;20096;-87
2022/12/06 11:28:24;;;;;;;3.28;1.15;;;6.40;99.90;;;;;;6244539;22;20023;-86
2022/12/06 11:31:07;;;;;;;3.95;1.20;;;6.60;99.90;;;;;;6218216;22;20027;-86
2022/12/06 11:33:43;;;;;;;1.98;0.77;;;6.50;99.90;;;;;;6219646;22;20024;-87
2022/12/06 11:36:24;;;;;;;;;;;;;;;;;;;;;
2022/12/06 11:39:05;;;;;;;;;;;;;;;;;;;;;
2022/12/06 11:41:47;;;;;;;2.30;1.08;;;6.70;99.90;;;;;;6224928;22;20016;-88
2022/12/06 11:44:40;;;;;;;;;;;;;;;;;;;;;
2022/12/06 11:47:20;;;;;;;;;;;;;;;;;;;;;
2022/12/06 11:49:57;;;;;;;4.03;1.65;;;5.40;99.90;;;;;;6241891;22;20016;-89
2022/12/06 12:02:25;;;;;;;2.28;0.80;;;6.30;99.90;;;;;;6224781;22;20016;-87
2022/12/06 12:05:06;;;;;;;2.42;0.70;;;7.40;99.90;;;;;;6214738;22;20012;-88
2022/12/06 12:07:44;;;;;;;2.78;0.90;;;8.20;99.90;;;;;;6241214;22;20030;-89
2022/12/06 12:10:37;;;;;;;2.30;0.90;;;6.70;99.90;;;;;;6215240;22;20028;-89
2022/12/06 12:16:00;;;;;;;3.67;1.00;;;6.70;99.90;;;;;;6242917;22;20016;-88
2022/12/06 12:18:33;;;;;;;3.63;0.93;;;6.90;99.90;;;;;;6218943;22;20110;-88
2022/12/06 12:21:00;;;;;;;2.08;0.90;;;6.80;99.90;;;;;;6243068;22;20042;-87
2022/12/06 12:23:29;;;;;;;4.57;0.80;;;7.50;99.90;;;;;;6168751;22;20051;-86
2022/12/06 12:26:13;;;;;;;2.78;0.95;;;6.70;99.90;;;;;;6217903;22;20107;-88
2022/12/06 12:28:41;;;;;;;4.47;0.80;;;6.80;99.90;;;;;;6244096;22;20027;-90
2022/12/06 12:31:26;;;;;;;2.38;0.82;;;7.10;99.90;;;;;;6219139;22;20020;-89
2022/12/06 12:34:26;;;;;;;2.25;0.80;;;7.00;99.90;;;;;;6245417;22;20016;-89
2022/12/06 12:37:20;;;;;;;2.45;0.65;;;6.80;99.90;;;;;;6179059;22;20016;-89
2022/12/06 12:39:51;;;;;;;2.47;1.15;;;6.70;99.90;;;;;;6244898;22;20110;-90
2022/12/06 12:42:32;;;;;;;2.50;0.80;;;6.60;99.90;;;;;;6220054;22;20015;-88
2022/12/06 12:45:01;;;;;;;2.30;1.08;;;5.50;99.90;;;;;;6220181;22;20019;-87
2022/12/06 12:47:27;;;;;;;4.50;1.05;;;6.80;99.90;;;;;;6219516;22;20015;-88
2022/12/06 12:50:26;;;;;;;3.58;0.88;;;6.50;99.90;;;;;;6219448;22;20119;-89
2022/12/06 12:53:34;;;;;;;2.13;0.90;;;6.40;99.90;;;;;;6207785;22;20110;-89
2022/12/06 12:56:43;;;;;;;3.63;0.85;;;6.40;99.90;;;;;;6224425;22;20024;-88
2022/12/06 12:59:20;;;;;;;3.67;0.75;;;6.70;99.90;;;;;;6218299;22;20023;-89
2022/12/06 13:02:06;;;;;;;1.77;0.68;;;6.80;99.90;;;;;;6218076;22;20051;-89
2022/12/06 13:04:43;;;;;;;2.30;1.02;;;6.10;99.90;;;;;;6219511;22;20015;-86
2022/12/06 13:07:16;;;;;;;2.90;1.13;;;6.70;99.90;;;;;;6220113;22;20023;-87
2022/12/06 13:10:05;;;;;;;3.85;1.05;;;7.60;99.90;;;;;;6218244;22;20103;-89
2022/12/06 13:13:01;;;;;;;5.97;1.00;;;6.50;99.90;;;;;;6217868;22;20030;-88
2022/12/06 13:15:52;;;;;;;4.95;1.30;;;6.60;99.90;;;;;;6218405;22;20020;-86
2022/12/06 13:18:33;;;;;;;11.82;2.00;;;6.60;99.90;;;;;;6241975;22;20727;-88
2022/12/06 13:21:03;;;;;;;3.30;0.98;;;6.90;99.90;;;;;;6240352;22;20020;-83
2022/12/06 13:23:33;;;;;;;3.00;0.70;;;6.60;99.90;;;;;;6217384;22;20016;-83
2022/12/06 13:26:25;;;;;;;2.85;1.20;;;6.70;99.90;;;;;;6242722;22;20019;-85
2022/12/06 13:29:00;;;;;;;2.70;0.65;;;6.70;99.90;;;;;;6242790;22;20347;-86
2022/12/06 13:31:35;;;;;;;1.25;0.60;;;6.90;99.90;;;;;;6219003;22;20019;-84
2022/12/06 13:34:24;;;;;;;5.38;0.70;;;5.90;99.90;;;;;;6217318;22;20057;-81
2022/12/06 13:36:52;;;;;;;1.35;0.60;;;6.80;99.90;;;;;;6217209;22;20218;-82
2022/12/06 13:39:30;;;;;;;3.90;0.80;;;6.80;99.90;;;;;;6217969;22;20027;-83
2022/12/06 13:42:16;;;;;;;4.95;0.80;;;7.00;99.90;;;;;;6217634;22;20619;-82
2022/12/06 13:44:54;;;;;;;4.75;0.70;;;7.50;99.90;;;;;;6216422;22;20055;-82
2022/12/06 13:47:27;;;;;;;2.53;0.80;;;6.70;99.90;;;;;;6217846;22;20077;-83
2022/12/06 13:50:22;;;;;;;3.90;0.85;;;7.00;99.90;;;;;;6242281;22;20019;-82
2022/12/06 13:52:47;;;;;;;3.30;0.80;;;6.80;99.90;;;;;;6215640;22;20020;-82
2022/12/06 13:55:22;;;;;;;5.30;0.77;;;6.80;99.90;;;;;;6216192;22;20078;-86
2022/12/06 13:57:59;;;;;;;3.40;0.80;;;6.80;99.90;;;;;;6216875;22;20085;-83
2022/12/06 14:00:33;;;;;;;5.07;0.63;;;6.80;99.90;;;;;;6242497;22;20502;-83
2022/12/06 14:03:24;;;;;;;2.05;0.80;;;6.90;99.90;;;;;;6217568;22;20015;-85
2022/12/06 14:06:09;;;;;;;7.25;0.80;;;5.70;99.90;;;;;;6241799;22;20099;-86
2022/12/06 14:08:47;;;;;;;4.80;0.70;;;6.90;99.90;;;;;;6218608;22;20019;-84
2022/12/06 14:11:19;;;;;;;2.53;0.85;;;6.80;99.90;;;;;;6243023;22;20066;-84
2022/12/06 14:14:07;;;;;;;2.20;0.60;;;6.80;99.90;;;;;;6218010;22;20054;-83
2022/12/06 14:16:41;;;;;;;5.40;1.15;;;6.60;99.90;;;;;;6216550;22;20114;-83
2022/12/06 14:19:39;;;;;;;3.17;0.70;;;6.60;99.90;;;;;;6217247;22;20082;-84
2022/12/06 14:22:28;;;;;;;7.35;1.05;;;8.00;99.90;;;;;;6218320;22;20407;-84
2022/12/06 14:25:03;;;;;;;2.72;0.90;;;8.10;99.90;;;;;;6216672;22;20854;-85
2022/12/06 14:27:32;;;;;;;4.43;0.85;;;6.50;99.90;;;;;;6217696;22;20022;-83
2022/12/06 14:30:06;;;;;;;2.33;0.90;;;6.50;99.90;;;;;;6215988;22;20089;-83
2022/12/06 14:32:41;;;;;;;4.38;0.88;;;6.70;99.90;;;;;;6219308;22;20016;-84